createdAt,value
2022-10-07T00:03:34.258Z,89.06
2022-10-07T00:08:38.448Z,89.85
2022-10-07T00:13:44.178Z,89.76
2022-10-07T00:18:48.172Z,89.53
2022-10-07T00:23:52.251Z,89.86
2022-10-07T00:28:56.660Z,88.91
2022-10-07T00:34:00.365Z,88.91
2022-10-07T00:39:05.478Z,90.10
2022-10-07T00:44:38.363Z,90.40
2022-10-07T00:49:46.647Z,89.89
2022-10-07T00:54:53.000Z,89.89
2022-10-07T00:59:58.240Z,90.09
2022-10-07T01:05:04.347Z,89.68
2022-10-07T01:10:09.202Z,90.15
2022-10-07T01:15:25.101Z,89.42
2022-10-07T01:20:35.794Z,88.23
2022-10-07T01:25:59.498Z,88.33
2022-10-07T01:31:07.437Z,87.76
2022-10-07T01:36:15.401Z,87.67
2022-10-07T01:41:21.273Z,88.86
2022-10-07T01:46:27.406Z,87.83
2022-10-07T01:51:37.715Z,88.00
2022-10-07T01:56:55.066Z,88.63
2022-10-07T02:02:06.307Z,89.05
2022-10-07T02:07:23.184Z,88.92
2022-10-07T02:12:35.527Z,89.70
2022-10-07T02:17:44.757Z,88.35
2022-10-07T02:22:50.158Z,87.41
2022-10-07T02:27:55.932Z,88.13
2022-10-07T02:33:04.292Z,88.62
2022-10-07T02:38:10.313Z,89.68
2022-10-07T02:43:18.413Z,90.16
2022-10-07T02:48:24.544Z,89.67
2022-10-07T02:53:32.152Z,89.88
2022-10-07T02:58:37.113Z,88.54
2022-10-07T03:03:42.335Z,88.84
2022-10-07T03:08:47.880Z,87.42
2022-10-07T03:13:51.265Z,86.66
2022-10-07T03:18:56.622Z,85.06
2022-10-07T03:24:04.861Z,86.59
2022-10-07T03:29:13.882Z,87.15
2022-10-07T03:34:18.708Z,89.67
2022-10-07T03:39:24.119Z,89.70
2022-10-07T03:44:27.027Z,89.54
2022-10-07T03:49:33.101Z,89.42
2022-10-07T03:54:36.034Z,89.05
2022-10-07T03:59:40.825Z,88.06
2022-10-07T04:04:45.547Z,88.50
2022-10-07T04:09:48.577Z,91.16
2022-10-07T04:14:51.921Z,90.16
2022-10-07T04:19:56.231Z,91.78
2022-10-07T04:25:21.894Z,92.02
2022-10-07T04:30:28.070Z,92.88
2022-10-07T04:35:32.455Z,91.51
2022-10-07T04:40:40.021Z,89.23
2022-10-07T04:45:43.299Z,88.15
2022-10-07T04:50:48.375Z,87.34
2022-10-07T04:55:52.479Z,86.94
2022-10-07T05:00:59.222Z,87.34
2022-10-07T05:06:06.016Z,89.67
2022-10-07T05:11:12.621Z,88.92
2022-10-07T05:16:24.984Z,88.17
2022-10-07T05:21:29.487Z,88.79
2022-10-07T05:26:33.018Z,89.77
2022-10-07T05:31:38.237Z,89.43
2022-10-07T05:36:44.332Z,89.15
2022-10-07T05:41:49.364Z,88.38
2022-10-07T05:46:55.631Z,90.12
2022-10-07T05:52:00.290Z,87.83
2022-10-07T05:57:03.198Z,86.21
2022-10-07T06:02:06.356Z,86.71
2022-10-07T06:07:11.164Z,87.51
2022-10-07T06:12:32.160Z,88.04
2022-10-07T06:17:42.658Z,85.84
2022-10-07T06:22:48.300Z,83.96
2022-10-07T06:27:54.656Z,80.16
2022-10-07T06:32:59.155Z,69.73
2022-10-07T06:38:03.410Z,71.25
2022-10-07T06:43:06.798Z,70.64
2022-10-07T06:48:20.442Z,67.98
2022-10-07T06:53:24.695Z,58.35
2022-10-07T06:58:28.695Z,54.37
2022-10-07T07:03:32.091Z,51.86
2022-10-07T07:08:41.108Z,50.72
2022-10-07T07:13:45.989Z,53.92
2022-10-07T07:18:52.610Z,54.69
2022-10-07T07:23:58.870Z,62.55
2022-10-07T07:29:05.458Z,65.85
2022-10-07T07:34:15.476Z,70.05
2022-10-07T07:39:21.761Z,69.75
2022-10-07T07:44:35.064Z,70.19
2022-10-07T07:49:39.376Z,70.40
2022-10-07T07:54:46.363Z,70.72
2022-10-07T07:59:49.537Z,71.16
2022-10-07T08:04:54.854Z,71.19
2022-10-07T08:10:00.557Z,70.66
2022-10-07T08:15:03.640Z,68.50
2022-10-07T08:20:08.775Z,66.26
2022-10-07T08:25:13.336Z,65.15
2022-10-07T08:30:16.320Z,65.62
2022-10-07T08:35:19.306Z,65.96
2022-10-07T08:40:23.705Z,66.15
2022-10-07T08:45:31.850Z,66.71
2022-10-07T08:50:42.089Z,64.91
2022-10-07T08:55:50.723Z,65.09
2022-10-07T09:01:03.323Z,63.86
2022-10-07T09:06:14.155Z,62.69
2022-10-07T09:11:25.570Z,64.17
2022-10-07T09:16:33.202Z,65.23
2022-10-07T09:21:43.639Z,65.71
2022-10-07T09:26:48.363Z,66.90
2022-10-07T09:31:53.410Z,66.84
2022-10-07T09:37:14.669Z,66.30
2022-10-07T09:42:28.396Z,67.63
2022-10-07T09:47:36.150Z,66.92
2022-10-07T09:52:38.890Z,66.60
2022-10-07T09:57:43.573Z,66.70
2022-10-07T10:02:49.959Z,67.03
2022-10-07T10:07:59.286Z,66.23
2022-10-07T10:13:05.299Z,66.08
2022-10-07T10:18:29.040Z,66.69
2022-10-07T10:23:36.719Z,66.65
2022-10-07T10:28:48.945Z,66.11
2022-10-07T10:33:59.722Z,66.46
2022-10-07T10:39:05.338Z,66.53
2022-10-07T10:44:28.723Z,65.78
2022-10-07T10:49:39.197Z,65.66
2022-10-07T10:54:56.196Z,65.34
2022-10-07T11:00:08.913Z,65.36
2022-10-07T11:05:17.400Z,65.00
2022-10-07T11:10:23.021Z,65.08
2022-10-07T11:15:33.631Z,65.79
2022-10-07T11:20:42.372Z,64.83
2022-10-07T11:25:53.760Z,64.88
2022-10-07T11:31:03.312Z,64.19
2022-10-07T11:36:14.825Z,63.73
2022-10-07T11:41:25.617Z,63.21
2022-10-07T11:46:34.942Z,63.79
2022-10-07T11:51:41.502Z,63.70
2022-10-07T11:56:48.154Z,63.11
2022-10-07T12:01:53.620Z,63.75
2022-10-07T12:07:34.787Z,62.81
2022-10-07T12:12:53.699Z,63.21
2022-10-07T12:18:38.793Z,63.40
2022-10-07T12:23:48.735Z,62.72
2022-10-07T12:29:05.372Z,62.65
2022-10-07T12:34:11.752Z,62.12
2022-10-07T12:39:37.219Z,61.69
2022-10-07T12:44:45.519Z,62.31
2022-10-07T12:49:50.554Z,62.71
2022-10-07T12:54:58.442Z,62.56
2022-10-07T13:00:08.001Z,61.86
2022-10-07T13:05:49.796Z,62.39
2022-10-07T13:11:26.623Z,62.74
2022-10-07T13:16:34.515Z,62.16
2022-10-07T13:21:40.611Z,62.40
2022-10-07T13:26:46.622Z,62.19
2022-10-07T13:32:03.827Z,62.58
2022-10-07T13:37:29.615Z,62.79
2022-10-07T13:42:33.810Z,61.70
2022-10-07T13:47:36.624Z,61.36
2022-10-07T13:52:44.545Z,59.68
2022-10-07T13:57:48.879Z,59.87
2022-10-07T14:02:52.676Z,59.28
2022-10-07T14:07:58.151Z,59.29
2022-10-07T14:13:07.221Z,59.38
2022-10-07T14:18:12.269Z,59.13
2022-10-07T14:23:23.479Z,58.49
2022-10-07T14:28:33.338Z,59.37
2022-10-07T14:34:00.840Z,58.46
2022-10-07T14:39:25.268Z,59.78
2022-10-07T14:44:29.993Z,60.61
2022-10-07T14:49:32.851Z,60.80
2022-10-07T14:54:35.896Z,61.26
2022-10-07T14:59:40.183Z,62.37
2022-10-07T15:04:47.006Z,62.62
2022-10-07T15:09:49.861Z,63.75
2022-10-07T15:14:54.933Z,63.53
2022-10-07T15:19:58.293Z,63.56
2022-10-07T15:25:03.319Z,63.62
2022-10-07T15:30:09.027Z,63.81
2022-10-07T15:35:12.328Z,63.58
2022-10-07T15:40:15.567Z,63.68
2022-10-07T15:45:19.855Z,63.28
2022-10-07T15:50:22.702Z,63.47
2022-10-07T15:55:25.457Z,64.36
2022-10-07T16:00:29.549Z,64.50
2022-10-07T16:05:32.480Z,63.82
2022-10-07T16:10:38.306Z,64.49
2022-10-07T16:15:42.618Z,63.99
2022-10-07T16:20:45.650Z,65.04
2022-10-07T16:25:49.304Z,65.00
2022-10-07T16:30:53.547Z,65.10
2022-10-07T16:35:56.412Z,64.49
2022-10-07T16:40:59.156Z,64.72
2022-10-07T16:46:04.219Z,64.87
2022-10-07T16:51:10.072Z,65.16
2022-10-07T16:56:13.823Z,64.34
2022-10-07T17:01:18.479Z,65.38
2022-10-07T17:06:24.519Z,65.37
2022-10-07T17:11:30.487Z,65.94
2022-10-07T17:16:37.681Z,66.00
2022-10-07T17:21:42.217Z,66.07
2022-10-07T17:26:45.896Z,66.29
2022-10-07T17:31:51.160Z,65.67
2022-10-07T17:36:54.093Z,65.73
2022-10-07T17:41:57.341Z,65.73
2022-10-07T17:47:03.771Z,66.19
2022-10-07T17:52:06.849Z,65.11
2022-10-07T17:57:10.195Z,65.40
2022-10-07T18:02:14.432Z,65.23
2022-10-07T18:07:17.617Z,65.55
2022-10-07T18:12:39.426Z,66.11
2022-10-07T18:17:44.507Z,66.53
2022-10-07T18:22:47.830Z,65.89
2022-10-07T18:27:51.362Z,66.01
2022-10-07T18:32:55.629Z,65.53
2022-10-07T18:37:58.501Z,65.56
2022-10-07T18:43:01.383Z,66.74
2022-10-07T18:48:05.738Z,67.42
2022-10-07T18:53:08.749Z,67.72
2022-10-07T18:58:11.776Z,67.55
2022-10-07T19:03:16.050Z,67.85
2022-10-07T19:08:19.496Z,68.05
2022-10-07T19:13:39.643Z,68.13
2022-10-07T19:18:44.756Z,68.36
2022-10-07T19:23:48.962Z,68.57
2022-10-07T19:28:53.153Z,68.53
2022-10-07T19:34:02.345Z,68.73
2022-10-07T19:39:07.368Z,69.13
2022-10-07T19:44:12.824Z,69.52
2022-10-07T19:49:17.259Z,69.36
2022-10-07T19:54:47.943Z,69.77
2022-10-07T19:59:59.914Z,70.59
2022-10-07T20:05:05.981Z,70.48
2022-10-07T20:10:11.268Z,71.65
2022-10-07T20:15:14.524Z,72.05
2022-10-07T20:20:18.961Z,72.97
2022-10-07T20:25:21.918Z,73.62
2022-10-07T20:30:24.843Z,74.22
2022-10-07T20:35:33.650Z,74.22
2022-10-07T20:41:05.749Z,73.83
2022-10-07T20:46:09.439Z,73.61
2022-10-07T20:51:13.808Z,73.08
2022-10-07T20:56:16.700Z,72.17
2022-10-07T21:01:19.733Z,72.46
2022-10-07T21:06:24.151Z,72.66
2022-10-07T21:11:28.057Z,72.35
2022-10-07T21:16:35.075Z,72.85
2022-10-07T21:21:39.644Z,72.63
2022-10-07T21:26:42.534Z,72.22
2022-10-07T21:31:45.616Z,72.60
2022-10-07T21:36:53.849Z,72.33
2022-10-07T21:41:58.196Z,72.50
2022-10-07T21:47:01.006Z,72.50
2022-10-07T21:52:05.177Z,72.97
2022-10-07T21:57:08.721Z,73.24
2022-10-07T22:02:11.541Z,72.94
2022-10-07T22:07:32.971Z,73.34
2022-10-07T22:12:35.781Z,73.70
2022-10-07T22:17:38.563Z,74.10
2022-10-07T22:22:42.713Z,74.95
2022-10-07T22:27:45.444Z,75.63
2022-10-07T22:32:48.726Z,76.31
2022-10-07T22:37:53.077Z,76.57
2022-10-07T22:42:56.045Z,76.82
2022-10-07T22:47:58.807Z,77.29
2022-10-07T22:53:03.194Z,77.55
2022-10-07T22:58:06.093Z,77.66
2022-10-07T23:03:10.845Z,78.11
2022-10-07T23:08:15.057Z,77.99
2022-10-07T23:13:17.812Z,77.79
2022-10-07T23:18:20.531Z,78.12
2022-10-07T23:23:25.298Z,79.14
2022-10-07T23:28:28.200Z,79.28
2022-10-07T23:33:31.897Z,79.51
2022-10-07T23:38:37.236Z,79.96
2022-10-07T23:43:40.045Z,79.95
2022-10-07T23:48:43.563Z,80.40
2022-10-07T23:53:48.332Z,80.71
2022-10-07T23:58:51.197Z,80.93
